Time;durP1;ratioP1;P1;durP2;ratioP2;P2;SDS_P1;SDS_P2;PMS_P1;PMS_P2;Temp;Humidity;BMP_temperature;BMP_pressure;BME280_temperature;BME280_humidity;BME280_pressure;Samples;Min_cycle;Max_cycle;Signal;HPM_P1;HPM_P2
2023/09/04 00:00:29;;;;;;;3.00;2.65;;;;;;;16.98;100.00;63758.09;4832216;29;20229;-73
2023/09/04 00:02:56;;;;;;;3.08;2.70;;;;;;;16.73;100.00;63732.06;4836274;29;20233;-73
2023/09/04 00:05:23;;;;;;;6.65;2.90;;;;;;;16.53;100.00;63708.69;4852313;29;20275;-72
2023/09/04 00:07:50;;;;;;;5.32;3.17;;;;;;;16.33;100.00;63688.38;4854744;29;20489;-71
2023/09/04 00:10:18;;;;;;;3.90;3.47;;;;;;;16.26;100.00;63678.00;4840186;29;20255;-73
2023/09/04 00:12:45;;;;;;;6.38;3.60;;;;;;;16.15;100.00;63669.66;4836306;29;20213;-72
2023/09/04 00:15:12;;;;;;;3.55;3.25;;;;;;;16.08;100.00;63660.31;4837226;29;20244;-72
2023/09/04 00:17:39;;;;;;;4.05;3.03;;;;;;;16.05;100.00;63656.69;4836058;29;20209;-72
2023/09/04 00:20:08;;;;;;;3.78;3.47;;;;;;;15.99;100.00;63655.59;4819676;29;20475;-72
2023/09/04 00:22:35;;;;;;;3.95;3.70;;;;;;;16.03;100.00;63654.63;4840201;29;20204;-71
2023/09/04 00:25:02;;;;;;;3.78;3.22;;;;;;;15.93;100.00;63644.72;4845576;29;20538;-71
2023/09/04 00:27:30;;;;;;;4.78;4.22;;;;;;;15.94;100.00;63645.78;4834219;29;20209;-72
2023/09/04 00:29:57;;;;;;;4.50;4.10;;;;;;;15.97;100.00;63650.94;4834555;29;20229;-72
2023/09/04 00:32:24;;;;;;;4.85;4.45;;;;;;;15.96;100.00;63652.97;4837916;29;20201;-72
2023/09/04 00:34:51;;;;;;;4.93;4.55;;;;;;;15.92;100.00;63646.25;4854752;29;20541;-72
2023/09/04 00:37:18;;;;;;;5.50;4.55;;;;;;;15.98;100.00;63649.41;4839437;29;20281;-73
2023/09/04 00:39:45;;;;;;;4.47;4.10;;;;;;;15.95;100.00;63654.53;4832365;29;20225;-73
2023/09/04 00:42:15;;;;;;;4.90;4.40;;;;;;;15.99;100.00;63645.84;4835937;29;20292;-73
2023/09/04 00:44:46;;;;;;;3.95;3.75;;;;;;;15.98;100.00;63654.53;4834945;29;20335;-73
2023/09/04 00:47:17;;;;;;;4.60;4.40;;;;;;;15.95;100.00;63646.28;4820623;29;20436;-74
2023/09/04 00:49:46;;;;;;;5.88;5.43;;;;;;;16.00;100.00;63651.47;4834747;29;20240;-73
2023/09/04 00:52:13;;;;;;;7.45;4.90;;;;;;;16.11;100.00;63662.94;4836074;29;20254;-74
2023/09/04 00:54:43;;;;;;;5.30;4.85;;;;;;;16.02;100.00;63654.09;4834185;29;20463;-74
2023/09/04 00:57:12;;;;;;;5.88;4.90;;;;;;;16.07;100.00;63659.28;4833089;29;20205;-73
2023/09/04 00:59:40;;;;;;;5.07;4.78;;;;;;;16.02;100.00;63651.53;4835559;29;20232;-74
2023/09/04 01:02:09;;;;;;;5.43;4.93;;;;;;;16.04;100.00;63658.22;4835416;29;20209;-74
2023/09/04 01:04:36;;;;;;;4.95;4.40;;;;;;;16.07;100.00;63661.88;4835718;29;20253;-74
2023/09/04 01:07:03;;;;;;;5.03;4.60;;;;;;;16.11;100.00;63660.38;4832903;29;20253;-74
2023/09/04 01:09:30;;;;;;;4.85;4.55;;;;;;;16.09;100.00;63663.94;4843502;29;20509;-74
2023/09/04 01:12:02;;;;;;;4.68;4.28;;;;;;;16.12;100.00;63669.09;4833736;29;20209;-75
2023/09/04 01:14:30;;;;;;;5.30;5.00;;;;;;;16.10;100.00;63661.91;4819088;29;20202;-73
2023/09/04 01:16:59;;;;;;;5.35;5.05;;;;;;;16.10;100.00;63662.41;4833269;29;20217;-74
2023/09/04 01:19:28;;;;;;;4.53;4.22;;;;;;;16.07;100.00;63661.88;4835544;29;20268;-74
2023/09/04 01:21:56;;;;;;;4.90;4.60;;;;;;;16.09;100.00;63656.22;4833687;29;20224;-74
2023/09/04 01:24:23;;;;;;;8.43;4.80;;;;;;;16.05;100.00;63661.81;4833580;29;20227;-73
2023/09/04 01:26:57;;;;;;;4.85;4.60;;;;;;;15.94;100.00;63648.34;4835859;29;20320;-74
2023/09/04 01:29:31;;;;;;;5.35;5.05;;;;;;;15.84;100.00;63635.38;4834769;29;20573;-73
2023/09/04 01:32:04;;;;;;;4.68;4.38;;;;;;;15.82;100.00;63632.78;4835559;29;20520;-73
2023/09/04 01:34:33;;;;;;;4.68;4.47;;;;;;;15.76;100.00;63627.06;4835813;29;20205;-73
2023/09/04 01:37:03;;;;;;;5.15;4.75;;;;;;;15.75;100.00;63625.50;4844040;29;20201;-73
2023/09/04 01:39:31;;;;;;;4.85;4.55;;;;;;;15.68;100.00;63618.75;4833865;29;20209;-73
2023/09/04 01:41:58;;;;;;;4.90;4.60;;;;;;;15.64;100.00;63614.06;4834146;29;20516;-72
2023/09/04 01:44:26;;;;;;;4.65;4.40;;;;;;;15.59;100.00;63606.81;4835046;29;20278;-74
2023/09/04 01:46:52;;;;;;;4.90;4.50;;;;;;;15.55;100.00;63604.72;4835040;29;20248;-73
2023/09/04 01:49:19;;;;;;;4.85;4.55;;;;;;;15.51;100.00;63600.56;4833451;29;20265;-72
2023/09/04 01:51:46;;;;;;;5.55;5.05;;;;;;;15.46;100.00;63595.34;4833142;29;20209;-73
2023/09/04 01:54:15;;;;;;;5.00;4.70;;;;;;;15.41;100.00;63593.22;4839451;29;20219;-72
2023/09/04 01:56:42;;;;;;;4.95;4.65;;;;;;;15.37;100.00;63583.94;4835187;29;20201;-72
2023/09/04 01:59:09;;;;;;;4.78;4.50;;;;;;;15.33;100.00;63579.78;4836646;29;20228;-71
2023/09/04 02:01:36;;;;;;;4.60;4.30;;;;;;;15.36;100.00;63590.06;4829498;29;20225;-72
2023/09/04 02:04:03;;;;;;;5.10;4.80;;;;;;;15.36;100.00;63587.50;4833902;29;20240;-72
2023/09/04 02:06:31;;;;;;;6.93;5.22;;;;;;;15.35;100.00;63581.31;4833512;29;20471;-72
2023/09/04 02:08:58;;;;;;;5.60;5.20;;;;;;;15.35;100.00;63589.03;4835047;29;20264;-72
2023/09/04 02:11:27;;;;;;;5.10;4.70;;;;;;;15.39;100.00;63588.06;4833401;29;20457;-72
2023/09/04 02:13:54;;;;;;;5.30;4.90;;;;;;;15.43;100.00;63592.25;4842670;29;20501;-72
2023/09/04 02:16:22;;;;;;;5.10;4.80;;;;;;;15.47;100.00;63593.81;4835159;29;20241;-73
2023/09/04 02:18:50;;;;;;;5.45;5.05;;;;;;;15.48;100.00;63594.88;4832968;29;20287;-73
2023/09/04 02:21:18;;;;;;;4.78;4.47;;;;;;;15.49;100.00;63603.59;4834814;29;20319;-73
2023/09/04 02:23:45;;;;;;;4.57;4.32;;;;;;;15.49;100.00;63596.44;4833728;29;20566;-73
2023/09/04 02:26:12;;;;;;;4.00;3.70;;;;;;;15.45;100.00;63592.25;4837520;29;20272;-74
2023/09/04 02:28:41;;;;;;;4.60;4.30;;;;;;;15.45;100.00;63597.41;4831451;29;20213;-74
2023/09/04 02:31:11;;;;;;;5.15;4.75;;;;;;;15.48;100.00;63597.44;4833825;29;20232;-73
2023/09/04 02:33:38;;;;;;;5.07;4.63;;;;;;;15.42;100.00;63594.28;4834128;29;20232;-73
2023/09/04 02:36:05;;;;;;;4.60;4.30;;;;;;;15.47;100.00;63594.34;4834504;29;20225;-74
2023/09/04 02:38:32;;;;;;;5.45;5.05;;;;;;;15.50;100.00;63596.94;4841942;29;20243;-73
2023/09/04 02:40:59;;;;;;;4.90;4.57;;;;;;;15.55;100.00;63604.72;4845252;29;20232;-73
2023/09/04 02:43:26;;;;;;;4.50;4.20;;;;;;;15.54;100.00;63603.66;4832091;29;20434;-73
2023/09/04 02:45:57;;;;;;;5.38;4.20;;;;;;;15.55;100.00;63605.22;4832547;29;20270;-72
2023/09/04 02:48:24;;;;;;;3.25;3.05;;;;;;;15.54;100.00;63604.19;4835446;29;20255;-73
2023/09/04 02:50:52;;;;;;;3.38;3.08;;;;;;;15.52;100.00;63601.56;4832672;29;20253;-72
2023/09/04 02:53:19;;;;;;;2.35;2.25;;;;;;;15.40;100.00;63587.06;4839240;29;20208;-73
2023/09/04 02:55:48;;;;;;;1.80;1.70;;;;;;;15.29;100.00;63572.53;4834364;29;20303;-71
2023/09/04 02:58:16;;;;;;;2.13;1.92;;;;;;;15.23;100.00;63574.00;4834665;29;20205;-73
2023/09/04 03:00:43;;;;;;;1.63;1.63;;;;;;;15.22;100.00;63570.38;4832326;29;20254;-72
2023/09/04 03:03:11;;;;;;;1.50;1.50;;;;;;;15.25;100.00;63574.03;4833465;29;20204;-73
2023/09/04 03:05:38;;;;;;;1.50;1.50;;;;;;;15.17;100.00;63567.75;4832142;29;20241;-72
2023/09/04 03:08:05;;;;;;;1.95;1.85;;;;;;;15.13;100.00;63561.56;4834738;29;20399;-73
2023/09/04 03:10:32;;;;;;;1.75;1.48;;;;;;;15.18;100.00;63568.78;4833634;29;20229;-72
2023/09/04 03:12:59;;;;;;;1.67;1.67;;;;;;;15.17;100.00;63565.69;4831181;29;20216;-72
2023/09/04 03:15:26;;;;;;;1.67;1.58;;;;;;;15.19;100.00;63565.22;4829773;29;20237;-73
2023/09/04 03:17:53;;;;;;;1.80;1.80;;;;;;;15.22;100.00;63573.47;4831481;29;22368;-73
2023/09/04 03:20:21;;;;;;;2.00;1.90;;;;;;;15.25;100.00;63573.50;4828550;29;20323;-72
2023/09/04 03:22:48;;;;;;;2.20;2.10;;;;;;;15.19;100.00;63569.81;4832832;29;20236;-72
2023/09/04 03:25:15;;;;;;;2.08;1.98;;;;;;;15.14;100.00;63559.50;4830119;29;20258;-73
2023/09/04 03:27:42;;;;;;;2.50;2.40;;;;;;;15.20;100.00;63571.41;4826973;29;20237;-71
2023/09/04 03:30:12;;;;;;;2.45;2.35;;;;;;;15.22;100.00;63573.47;4832825;29;20255;-73
2023/09/04 03:32:39;;;;;;;2.55;2.45;;;;;;;15.28;100.00;63576.63;4832953;29;20201;-72
2023/09/04 03:35:06;;;;;;;2.92;2.72;;;;;;;15.27;100.00;63575.59;4833869;29;20263;-72
2023/09/04 03:37:36;;;;;;;2.50;2.40;;;;;;;15.22;100.00;63568.31;4829922;29;20240;-72
2023/09/04 03:40:23;;;;;;;2.80;2.60;;;;;;;15.32;100.00;63583.34;4834088;29;20229;-72
2023/09/04 03:42:50;;;;;;;4.70;3.10;;;;;;;15.35;100.00;63583.88;4837511;29;20205;-71
2023/09/04 03:45:17;;;;;;;3.08;2.97;;;;;;;15.39;100.00;63590.63;4832945;29;20235;-72
2023/09/04 03:47:45;;;;;;;2.58;2.47;;;;;;;15.34;100.00;63583.38;4833929;29;20210;-72
2023/09/04 03:50:12;;;;;;;3.63;3.33;;;;;;;15.32;100.00;63581.31;4836470;29;20225;-72
2023/09/04 03:52:42;;;;;;;3.50;3.30;;;;;;;15.40;100.00;63594.75;4838158;29;20214;-72
2023/09/04 03:55:11;;;;;;;3.30;3.10;;;;;;;15.41;100.00;63587.59;4833018;29;20231;-72
2023/09/04 03:57:39;;;;;;;3.92;3.63;;;;;;;15.42;100.00;63591.72;4837208;29;20232;-72
2023/09/04 04:00:14;;;;;;;3.95;3.70;;;;;;;15.34;100.00;63580.81;4835745;29;20229;-72
2023/09/04 04:02:41;;;;;;;3.75;3.33;;;;;;;15.33;100.00;63581.81;4838783;29;20227;-72
2023/09/04 04:05:09;;;;;;;3.95;3.65;;;;;;;15.35;100.00;63586.47;4834959;29;20545;-72
2023/09/04 04:07:36;;;;;;;3.50;3.40;;;;;;;15.31;100.00;63584.84;4837367;29;20204;-71
2023/09/04 04:10:05;;;;;;;3.45;3.25;;;;;;;15.24;100.00;63575.53;4837052;29;20224;-71
2023/09/04 04:12:32;;;;;;;3.90;3.65;;;;;;;15.17;100.00;63560.56;4833237;29;20208;-74
2023/09/04 04:15:03;;;;;;;4.38;4.05;;;;;;;15.17;100.00;63570.84;4836620;29;20247;-71
2023/09/04 04:17:30;;;;;;;3.92;3.72;;;;;;;15.18;100.00;63571.34;4836747;29;20247;-72
2023/09/04 04:19:56;;;;;;;4.50;4.20;;;;;;;15.13;100.00;63561.03;4849170;29;20232;-74
2023/09/04 04:22:24;;;;;;;4.30;4.03;;;;;;;15.22;100.00;63573.47;4837867;29;21334;-74
2023/09/04 04:24:52;;;;;;;4.28;4.00;;;;;;;15.22;100.00;63572.94;4836918;29;20468;-73
2023/09/04 04:27:20;;;;;;;4.40;4.20;;;;;;;15.24;100.00;63572.97;4829002;29;20213;-74
2023/09/04 04:29:50;;;;;;;4.55;4.18;;;;;;;15.27;100.00;63573.03;4817028;29;20232;-75
2023/09/04 04:32:17;;;;;;;4.00;3.72;;;;;;;15.31;100.00;63577.69;4830511;29;20388;-73
2023/09/04 04:34:43;;;;;;;3.80;3.60;;;;;;;15.32;100.00;63578.22;4836301;29;20459;-73
2023/09/04 04:37:10;;;;;;;3.65;3.45;;;;;;;15.32;100.00;63580.78;4837386;29;20391;-74
2023/09/04 04:39:37;;;;;;;5.18;3.58;;;;;;;15.27;100.00;63578.69;4833281;29;20225;-74
2023/09/04 04:42:04;;;;;;;3.30;3.10;;;;;;;15.26;100.00;63577.63;4832198;29;20266;-73
2023/09/04 04:44:33;;;;;;;3.15;2.95;;;;;;;15.26;100.00;63577.63;4833986;29;20209;-73
2023/09/04 04:46:59;;;;;;;2.55;2.45;;;;;;;15.22;100.00;63570.38;4834497;29;20209;-73
2023/09/04 04:49:26;;;;;;;2.60;2.40;;;;;;;15.22;100.00;63572.94;4835810;29;20225;-73
2023/09/04 04:51:54;;;;;;;2.17;2.08;;;;;;;15.23;100.00;63571.41;4834769;29;20274;-72
2023/09/04 04:54:21;;;;;;;2.20;2.10;;;;;;;15.19;100.00;63565.22;4829237;29;20246;-73
2023/09/04 04:56:48;;;;;;;1.83;1.73;;;;;;;15.23;100.00;63577.06;4832202;29;20228;-73
2023/09/04 04:59:16;;;;;;;1.92;1.80;;;;;;;15.19;100.00;63572.91;4833361;29;20456;-73
2023/09/04 05:01:45;;;;;;;1.90;1.80;;;;;;;15.18;100.00;63563.66;4832850;29;20566;-72
2023/09/04 05:04:12;;;;;;;1.88;1.77;;;;;;;15.15;100.00;63568.78;4835992;29;20215;-72
2023/09/04 05:06:39;;;;;;;2.30;2.13;;;;;;;15.18;100.00;63571.34;4836732;29;20225;-74
2023/09/04 05:09:06;;;;;;;2.45;1.70;;;;;;;15.15;100.00;63563.13;4833209;29;20530;-72
2023/09/04 05:11:33;;;;;;;1.88;1.77;;;;;;;15.16;100.00;63561.56;4836193;29;20232;-73
2023/09/04 05:14:00;;;;;;;2.47;1.80;;;;;;;15.15;100.00;63561.06;4836539;29;20233;-72
2023/09/04 05:16:27;;;;;;;1.92;1.83;;;;;;;15.22;100.00;63570.91;4834760;29;20292;-73
2023/09/04 05:18:57;;;;;;;1.70;1.60;;;;;;;15.31;100.00;63580.25;4837551;29;20212;-74
2023/09/04 05:21:24;;;;;;;1.85;1.77;;;;;;;15.31;100.00;63577.69;4836425;29;20224;-73
2023/09/04 05:23:53;;;;;;;1.70;1.60;;;;;;;15.42;100.00;63594.28;4833868;29;20269;-72
2023/09/04 05:26:20;;;;;;;1.85;1.75;;;;;;;15.46;100.00;63600.50;4831415;29;20420;-74
2023/09/04 05:28:47;;;;;;;1.77;1.73;;;;;;;15.37;100.00;63583.41;4835756;29;20509;-73
2023/09/04 05:31:14;;;;;;;1.60;1.60;;;;;;;15.35;100.00;63584.41;4835169;29;20239;-72
2023/09/04 05:33:41;;;;;;;2.15;2.05;;;;;;;15.36;100.00;63587.50;4836967;29;20205;-72
2023/09/04 05:36:10;;;;;;;3.00;2.80;;;;;;;15.38;100.00;63584.44;4833442;29;20229;-74
2023/09/04 05:38:37;;;;;;;6.03;2.53;;;;;;;15.33;100.00;63584.38;4835413;29;20300;-75
2023/09/04 05:41:04;;;;;;;2.88;2.78;;;;;;;15.28;100.00;63577.13;4834709;29;20491;-74
2023/09/04 05:43:31;;;;;;;2.83;2.60;;;;;;;15.25;100.00;63573.50;4832946;29;20217;-75
2023/09/04 05:45:59;;;;;;;3.15;2.85;;;;;;;15.13;100.00;63561.03;4833391;29;20221;-73
2023/09/04 05:48:26;;;;;;;2.90;2.70;;;;;;;15.12;100.00;63555.38;4837225;29;20206;-74
2023/09/04 05:50:53;;;;;;;2.92;2.83;;;;;;;15.11;100.00;63556.91;4835704;29;20525;-73
2023/09/04 05:53:23;;;;;;;2.72;2.63;;;;;;;15.12;100.00;63557.44;4832940;29;20383;-74
2023/09/04 05:56:04;;;;;;;3.13;2.97;;;;;;;15.14;100.00;63562.06;4834620;29;20319;-73
2023/09/04 05:58:31;;;;;;;3.28;3.08;;;;;;;15.21;100.00;63567.31;4833474;29;20307;-74
2023/09/04 06:00:58;;;;;;;2.88;2.70;;;;;;;15.28;100.00;63579.72;4835494;29;20243;-73
2023/09/04 06:03:27;;;;;;;3.25;2.95;;;;;;;15.32;100.00;63583.88;4835687;29;20281;-75
2023/09/04 06:05:54;;;;;;;2.95;2.75;;;;;;;15.35;100.00;63584.41;4831615;29;20233;-74
2023/09/04 06:08:22;;;;;;;3.05;2.85;;;;;;;15.40;100.00;63594.25;4835436;29;20213;-73
2023/09/04 06:10:50;;;;;;;2.90;2.80;;;;;;;15.37;100.00;63586.50;4834869;29;20233;-74
2023/09/04 06:13:17;;;;;;;3.17;3.08;;;;;;;15.53;100.00;63602.63;4833863;29;20213;-75
2023/09/04 06:15:44;;;;;;;3.53;2.97;;;;;;;15.44;100.00;63593.78;4832623;29;20530;-75
2023/09/04 06:18:12;;;;;;;3.03;2.90;;;;;;;15.32;100.00;63580.78;4836418;29;20236;-73
2023/09/04 06:20:39;;;;;;;2.92;2.75;;;;;;;15.43;100.00;63589.69;4832956;29;20228;-74
2023/09/04 06:23:05;;;;;;;3.03;2.92;;;;;;;15.50;100.00;63600.03;4834704;29;20407;-75
2023/09/04 06:25:38;;;;;;;2.88;2.67;;;;;;;15.22;100.00;63573.47;4832991;29;20243;-75
2023/09/04 06:28:06;;;;;;;3.15;2.90;;;;;;;15.36;100.00;63585.44;4827988;29;20220;-74
2023/09/04 06:30:32;;;;;;;3.20;2.92;;;;;;;15.39;100.00;63586.00;4828127;29;20244;-74
2023/09/04 06:32:59;;;;;;;6.95;3.08;;;;;;;15.26;100.00;63582.22;4833304;29;20213;-75
2023/09/04 06:35:26;;;;;;;3.03;2.92;;;;;;;15.17;100.00;63568.25;4833339;29;20553;-76
2023/09/04 06:37:53;;;;;;;4.00;2.80;;;;;;;15.32;100.00;63583.34;4825857;29;20236;-74
2023/09/04 06:40:20;;;;;;;3.95;3.75;;;;;;;15.33;100.00;63579.25;4826746;29;20241;-75
2023/09/04 06:42:49;;;;;;;3.65;3.35;;;;;;;15.18;100.00;63566.75;4832853;29;20217;-73
2023/09/04 06:45:16;;;;;;;4.55;3.15;;;;;;;15.34;100.00;63580.28;4821208;29;20236;-76
2023/09/04 06:47:43;;;;;;;3.15;3.05;;;;;;;15.26;100.00;63575.06;4820258;29;20218;-76
2023/09/04 06:50:11;;;;;;;3.65;3.45;;;;;;;15.39;100.00;63585.50;4829480;29;20228;-75
2023/09/04 06:52:38;;;;;;;3.85;3.65;;;;;;;15.61;100.00;63613.50;4832947;29;20212;-76
2023/09/04 06:55:06;;;;;;;3.63;3.40;;;;;;;15.70;100.00;63617.72;4826779;29;20565;-75
2023/09/04 06:57:33;;;;;;;3.08;2.92;;;;;;;15.79;96.22;63630.16;4825158;29;20396;-77
2023/09/04 07:00:07;;;;;;;4.55;3.35;;;;;;;15.88;97.24;63642.09;4836356;29;20398;-75
2023/09/04 07:02:34;;;;;;;3.00;2.75;;;;;;;15.95;95.03;63646.28;4825677;29;20228;-74
2023/09/04 07:05:02;;;;;;;3.22;3.13;;;;;;;15.97;93.02;63651.47;4830837;29;20292;-76
2023/09/04 07:07:30;;;;;;;3.63;2.90;;;;;;;16.20;92.54;63675.38;4824875;29;20202;-77
2023/09/04 07:09:57;;;;;;;3.50;3.30;;;;;;;16.29;93.93;63686.78;4828156;29;20545;-76
2023/09/04 07:12:24;;;;;;;3.45;3.25;;;;;;;16.13;94.28;63667.59;4826245;29;20209;-77
2023/09/04 07:14:51;;;;;;;3.90;3.70;;;;;;;16.13;95.06;63665.53;4834859;29;20233;-77
2023/09/04 07:17:19;;;;;;;4.10;3.60;;;;;;;16.26;94.96;63680.56;4831052;29;20258;-75
2023/09/04 07:19:46;;;;;;;3.90;3.70;;;;;;;16.24;95.01;63675.94;4833783;29;20416;-75
2023/09/04 07:22:13;;;;;;;3.17;3.08;;;;;;;16.20;95.48;63669.72;4833928;29;20217;-73
2023/09/04 07:24:40;;;;;;;4.07;3.85;;;;;;;16.19;95.83;63671.25;4831014;29;20265;-75
2023/09/04 07:27:07;;;;;;;3.67;3.42;;;;;;;16.26;95.10;63681.09;4834571;29;20219;-74
2023/09/04 07:29:34;;;;;;;3.63;3.42;;;;;;;16.24;95.18;63673.38;4836610;29;20228;-75
2023/09/04 07:32:01;;;;;;;3.35;3.15;;;;;;;16.11;96.81;63660.88;4835421;29;20272;-75
2023/09/04 07:34:30;;;;;;;3.20;3.00;;;;;;;16.09;96.32;63655.72;4830788;29;20205;-74
2023/09/04 07:36:57;;;;;;;3.50;3.30;;;;;;;16.24;95.02;63671.31;4834048;29;20409;-75
2023/09/04 07:39:24;;;;;;;3.72;3.53;;;;;;;16.47;93.68;63702.97;4833739;29;20207;-74
2023/09/04 07:41:51;;;;;;;3.30;3.20;;;;;;;16.52;92.66;63705.06;4831457;29;20455;-74
2023/09/04 07:44:18;;;;;;;3.55;3.35;;;;;;;16.68;92.41;63724.81;4830421;29;20208;-74
2023/09/04 07:46:45;;;;;;;3.67;3.50;;;;;;;16.78;92.45;63727.50;4835244;29;20379;-74
2023/09/04 07:49:12;;;;;;;3.72;3.47;;;;;;;16.90;91.25;63744.63;4822968;29;20535;-74
2023/09/04 07:51:40;;;;;;;3.22;3.13;;;;;;;16.81;91.50;63735.78;4825864;29;20273;-76
2023/09/04 07:54:08;;;;;;;3.80;3.60;;;;;;;16.91;89.85;63748.25;4823425;29;20205;-74
2023/09/04 07:56:34;;;;;;;4.80;3.40;;;;;;;16.95;90.98;63744.66;4825189;29;20224;-74
2023/09/04 07:59:01;;;;;;;3.80;3.60;;;;;;;16.95;90.96;63750.34;4834278;29;20323;-75
2023/09/04 08:01:30;;;;;;;3.38;3.25;;;;;;;17.07;90.06;63765.41;4830924;29;20346;-74
2023/09/04 08:03:57;;;;;;;3.97;3.67;;;;;;;17.04;91.06;63756.63;4833932;29;20277;-74
2023/09/04 08:06:27;;;;;;;4.32;3.80;;;;;;;16.98;90.99;63750.38;4831135;29;20229;-74
2023/09/04 08:08:55;;;;;;;4.10;3.90;;;;;;;17.14;90.94;63770.13;4832306;29;20204;-74
2023/09/04 08:11:23;;;;;;;4.22;3.65;;;;;;;17.34;89.85;63785.78;4832042;29;20580;-74
2023/09/04 08:13:50;;;;;;;3.47;3.38;;;;;;;17.32;87.97;63788.34;4833171;29;20212;-73
2023/09/04 08:16:16;;;;;;;4.20;3.95;;;;;;;17.40;88.39;63796.66;4834887;29;20549;-73
2023/09/04 08:18:44;;;;;;;3.38;3.28;;;;;;;17.63;89.25;63820.63;4834205;29;20291;-75
2023/09/04 08:21:11;;;;;;;4.00;3.70;;;;;;;17.46;87.55;63804.97;4834029;29;20236;-74
2023/09/04 08:23:38;;;;;;;3.90;3.60;;;;;;;17.57;87.04;63816.97;4833714;29;20205;-75
2023/09/04 08:26:07;;;;;;;4.18;3.88;;;;;;;17.65;86.28;63824.78;4834506;29;20233;-73
2023/09/04 08:28:34;;;;;;;3.60;3.40;;;;;;;17.42;88.26;63803.38;4836480;29;20205;-74
2023/09/04 08:31:01;;;;;;;4.25;3.95;;;;;;;17.23;90.80;63774.34;4837177;29;20229;-74
2023/09/04 08:33:28;;;;;;;4.25;3.85;;;;;;;17.40;90.32;63793.56;4836436;29;20224;-74
2023/09/04 08:35:55;;;;;;;4.00;3.80;;;;;;;17.32;88.89;63788.84;4836962;29;20225;-74
2023/09/04 08:38:22;;;;;;;3.60;3.40;;;;;;;17.28;87.80;63786.75;4835032;29;20244;-75
2023/09/04 08:40:49;;;;;;;4.20;4.00;;;;;;;17.26;89.67;63784.66;4836369;29;20717;-72
2023/09/04 08:43:18;;;;;;;4.10;3.80;;;;;;;17.36;88.50;63794.56;4836572;29;20207;-74
2023/09/04 08:45:45;;;;;;;3.55;3.40;;;;;;;17.42;88.35;63793.59;4836592;29;20224;-74
2023/09/04 08:48:14;;;;;;;4.38;4.07;;;;;;;17.42;89.83;63801.31;4836980;29;20197;-74
2023/09/04 08:50:42;;;;;;;3.92;3.72;;;;;;;17.07;89.98;63757.16;4836837;29;20426;-74
2023/09/04 08:53:10;;;;;;;4.20;3.90;;;;;;;17.10;90.50;63765.94;4836320;29;20216;-75
2023/09/04 08:55:37;;;;;;;4.30;4.00;;;;;;;17.25;90.58;63781.56;4837509;29;20560;-76
2023/09/04 08:58:05;;;;;;;4.05;3.85;;;;;;;17.20;90.88;63778.94;4838049;29;20240;-72
2023/09/04 09:00:34;;;;;;;4.45;4.15;;;;;;;17.28;90.34;63781.59;4836278;29;20533;-73
2023/09/04 09:03:01;;;;;;;4.35;4.05;;;;;;;17.21;90.34;63777.41;4836375;29;20381;-74
2023/09/04 09:05:29;;;;;;;4.45;4.15;;;;;;;17.06;92.03;63761.28;4836363;29;20247;-73
2023/09/04 09:07:56;;;;;;;4.57;4.07;;;;;;;17.22;91.82;63783.09;4836269;29;20209;-73
2023/09/04 09:10:23;;;;;;;4.43;4.05;;;;;;;17.21;91.94;63779.97;4837452;29;20295;-73
2023/09/04 09:12:51;;;;;;;4.78;4.43;;;;;;;17.23;92.59;63776.91;4836043;29;20378;-72
2023/09/04 09:15:18;;;;;;;4.63;4.32;;;;;;;16.83;94.79;63734.75;4836232;29;20592;-74
2023/09/04 09:17:54;;;;;;;4.18;3.97;;;;;;;17.05;93.29;63758.19;4835746;29;20228;-73
2023/09/04 09:20:42;;;;;;;4.88;4.47;;;;;;;16.94;92.71;63751.88;4836193;29;20220;-74
2023/09/04 09:23:09;;;;;;;4.05;3.85;;;;;;;16.99;95.66;63756.56;4837999;29;20295;-73
2023/09/04 09:25:37;;;;;;;4.40;4.00;;;;;;;16.92;94.75;63746.69;4836082;29;20236;-74
2023/09/04 09:28:07;;;;;;;4.93;4.63;;;;;;;17.00;95.42;63760.16;4836107;29;20535;-73
2023/09/04 09:30:35;;;;;;;4.80;4.40;;;;;;;17.24;93.82;63777.44;4835496;29;20264;-73
2023/09/04 09:33:12;;;;;;;4.82;4.43;;;;;;;17.37;93.61;63793.53;4835602;29;20492;-74
2023/09/04 09:35:41;;;;;;;4.85;4.45;;;;;;;17.13;95.61;63766.50;4835923;29;20265;-74
2023/09/04 09:38:08;;;;;;;4.90;4.70;;;;;;;16.77;96.36;63725.94;4824053;29;20229;-75
2023/09/04 09:40:35;;;;;;;4.97;4.50;;;;;;;16.59;98.41;63712.88;4816220;29;20221;-73
2023/09/04 09:43:02;;;;;;;4.97;4.57;;;;;;;16.55;98.49;63713.84;4822964;29;20217;-73
2023/09/04 09:45:32;;;;;;;4.65;4.35;;;;;;;16.75;97.40;63726.44;4832990;29;20233;-73
2023/09/04 09:48:03;;;;;;;5.30;4.90;;;;;;;16.88;96.26;63740.47;4833764;29;20223;-73
2023/09/04 09:50:32;;;;;;;5.07;4.68;;;;;;;17.04;95.61;63759.72;4834250;29;20540;-73
2023/09/04 09:53:00;;;;;;;4.63;4.18;;;;;;;17.24;95.45;63772.28;4834283;29;20197;-75
2023/09/04 09:55:28;;;;;;;4.80;4.50;;;;;;;17.40;94.81;63801.28;4833045;29;20225;-73
2023/09/04 09:57:57;;;;;;;5.00;4.60;;;;;;;17.42;93.23;63801.31;4833609;29;20209;-73
2023/09/04 10:00:25;;;;;;;5.03;4.63;;;;;;;17.35;94.61;63796.59;4833404;29;20220;-73
2023/09/04 10:02:52;;;;;;;5.13;4.72;;;;;;;17.46;93.44;63802.94;4833366;29;20453;-74
2023/09/04 10:05:20;;;;;;;5.63;5.22;;;;;;;17.15;96.46;63773.22;4835501;29;20232;-75
2023/09/04 10:07:52;;;;;;;4.95;4.65;;;;;;;17.18;95.76;63776.88;4829050;29;20213;-73
2023/09/04 10:10:20;;;;;;;5.18;4.80;;;;;;;17.32;95.35;63786.28;4831668;29;20247;-73
2023/09/04 10:12:51;;;;;;;4.93;4.57;;;;;;;17.31;95.03;63787.81;4825478;29;20389;-73
2023/09/04 10:15:24;;;;;;;5.47;5.07;;;;;;;17.21;95.55;63779.97;4828790;29;20221;-74
2023/09/04 10:17:57;;;;;;;5.88;5.38;;;;;;;16.97;100.00;63749.84;4825861;29;20201;-72
2023/09/04 10:20:27;;;;;;;5.43;5.07;;;;;;;16.96;100.00;63753.94;4824506;29;20221;-74
2023/09/04 10:23:03;;;;;;;5.68;5.18;;;;;;;16.79;100.00;63736.25;4834792;29;20213;-73
2023/09/04 10:25:41;;;;;;;6.18;5.68;;;;;;;16.59;100.00;63712.88;4835261;29;20303;-74
2023/09/04 10:28:13;;;;;;;6.38;5.97;;;;;;;16.60;100.00;63716.50;4834994;29;20204;-74
2023/09/04 10:30:43;;;;;;;7.90;5.63;;;;;;;16.16;100.00;63666.09;4830465;29;20299;-73
2023/09/04 10:33:13;;;;;;;7.15;6.55;;;;;;;16.25;100.00;63674.41;4834153;29;20209;-75
2023/09/04 10:35:41;;;;;;;8.32;6.03;;;;;;;16.28;100.00;63678.03;4833137;29;20345;-73
2023/09/04 10:38:10;;;;;;;9.00;6.85;;;;;;;16.08;100.00;63659.81;4833760;29;20267;-72
2023/09/04 10:40:38;;;;;;;7.70;6.90;;;;;;;15.71;100.00;63623.91;4833976;29;20228;-73
2023/09/04 10:43:06;;;;;;;8.73;7.50;;;;;;;15.74;100.00;63624.44;4833933;29;20197;-75
2023/09/04 10:45:33;;;;;;;8.07;7.18;;;;;;;15.61;100.00;63608.91;4833761;29;20297;-73
2023/09/04 10:48:01;;;;;;;7.93;7.22;;;;;;;15.47;100.00;63596.91;4835480;29;20267;-73
2023/09/04 10:50:29;;;;;;;8.18;7.38;;;;;;;15.26;100.00;63572.50;4833058;29;20221;-73
2023/09/04 10:52:58;;;;;;;8.75;7.82;;;;;;;15.21;100.00;63571.91;4834491;29;20205;-73
2023/09/04 10:55:26;;;;;;;8.77;7.97;;;;;;;15.18;100.00;63566.75;4834379;29;20236;-75
2023/09/04 10:57:55;;;;;;;11.38;9.65;;;;;;;15.11;100.00;63556.38;4835363;29;20209;-75
2023/09/04 11:00:33;;;;;;;10.73;8.43;;;;;;;15.11;100.00;63558.94;4837299;29;20228;-75
2023/09/04 11:03:14;;;;;;;9.43;7.90;;;;;;;15.11;100.00;63558.94;4836738;29;20591;-77
2023/09/04 11:06:19;;;;;;;12.10;8.93;;;;;;;15.12;100.00;63557.44;4834282;29;20293;-75
2023/09/04 11:08:51;;;;;;;9.05;8.20;;;;;;;15.18;100.00;63569.31;4829222;29;20212;-76
2023/09/04 11:11:25;;;;;;;12.02;8.90;;;;;;;15.14;100.00;63560.03;4835058;29;20278;-75
2023/09/04 11:14:02;;;;;;;9.27;8.40;;;;;;;15.08;100.00;63556.88;4834497;29;20232;-74
2023/09/04 11:16:38;;;;;;;16.02;9.70;;;;;;;15.12;100.00;63557.44;4835020;29;20258;-75
2023/09/04 11:19:07;;;;;;;11.13;9.70;;;;;;;15.15;100.00;63566.19;4837136;29;20552;-77
2023/09/04 11:21:36;;;;;;;12.50;10.30;;;;;;;15.29;100.00;63575.09;4835172;29;20556;-75
2023/09/04 11:24:05;;;;;;;11.48;10.27;;;;;;;15.32;100.00;63576.16;4835256;29;20513;-77
2023/09/04 11:26:34;;;;;;;12.63;11.00;;;;;;;15.29;100.00;63575.09;4834375;29;20329;-76
2023/09/04 11:29:02;;;;;;;12.80;11.48;;;;;;;15.25;100.00;63571.47;4834528;29;20205;-75
2023/09/04 11:31:31;;;;;;;14.38;11.85;;;;;;;15.14;100.00;63565.16;4834457;29;20235;-75